createdAt,value
2023-04-29T00:00:33.802Z,46
2023-04-29T00:15:32.153Z,46
2023-04-29T00:30:32.321Z,46
2023-04-29T00:45:32.744Z,45
2023-04-29T01:00:31.997Z,45
2023-04-29T01:45:32.483Z,46
2023-04-29T02:00:32.943Z,46
2023-04-29T02:15:32.556Z,46
2023-04-29T02:30:32.934Z,46
2023-04-29T03:15:32.895Z,47
2023-04-29T03:30:33.001Z,47
2023-04-29T04:15:32.031Z,47
2023-04-29T04:30:32.047Z,47
2023-04-29T04:45:32.630Z,47
2023-04-29T05:00:33.521Z,47
2023-04-29T05:15:32.354Z,47
2023-04-29T05:30:33.696Z,48
2023-04-29T05:45:33.003Z,48
2023-04-29T06:00:33.333Z,48
2023-04-29T06:15:32.594Z,48
2023-04-29T06:30:33.178Z,49
2023-04-29T06:45:32.355Z,49
2023-04-29T07:00:33.525Z,49
2023-04-29T07:15:32.096Z,49
2023-04-29T07:30:33.599Z,49
2023-04-29T07:45:32.591Z,50
2023-04-29T08:00:34.333Z,50
2023-04-29T08:15:32.431Z,50
2023-04-29T08:30:32.426Z,50
2023-04-29T08:45:32.913Z,50
2023-04-29T09:00:33.156Z,50
2023-04-29T09:15:32.488Z,49
2023-04-29T09:30:33.425Z,49
2023-04-29T09:45:32.619Z,49
2023-04-29T10:00:33.069Z,49
2023-04-29T10:15:33.032Z,49
2023-04-29T10:30:33.784Z,48
2023-04-29T10:45:32.748Z,48
2023-04-29T11:00:33.697Z,48
2023-04-29T11:15:32.992Z,48
2023-04-29T11:30:32.960Z,47
2023-04-29T11:45:32.603Z,47
2023-04-29T12:00:33.276Z,47
2023-04-29T12:15:32.424Z,47
2023-04-29T12:30:33.028Z,46
2023-04-29T12:45:32.959Z,46
2023-04-29T13:00:33.098Z,46
2023-04-29T13:15:32.563Z,45
2023-04-29T13:30:32.687Z,45
2023-04-29T13:45:32.447Z,45
2023-04-29T14:01:26.026Z,45
2023-04-29T14:15:32.327Z,45
2023-04-29T14:30:33.295Z,44
2023-04-29T14:45:32.596Z,44
2023-04-29T15:00:32.284Z,44
2023-04-29T15:15:34.109Z,44
2023-04-29T15:30:33.590Z,44
2023-04-29T15:45:32.898Z,44
2023-04-29T16:00:34.233Z,43
2023-04-29T16:15:32.192Z,43
2023-04-29T17:00:34.148Z,43
2023-04-29T17:15:32.764Z,43
2023-04-29T17:30:33.650Z,43
2023-04-29T17:45:32.511Z,43
2023-04-29T18:15:32.399Z,43
2023-04-29T18:30:33.468Z,43
2023-04-29T18:45:32.794Z,43
2023-04-29T19:00:33.097Z,43
2023-04-29T19:15:32.406Z,43
2023-04-29T19:30:32.833Z,44
2023-04-29T19:45:32.777Z,44
2023-04-29T20:00:33.419Z,44
2023-04-29T20:15:32.225Z,44
2023-04-29T20:30:33.222Z,44
2023-04-29T20:45:32.126Z,44
2023-04-29T21:00:32.211Z,44
2023-04-29T21:15:32.600Z,44
2023-04-29T21:30:32.249Z,44
2023-04-29T21:45:32.046Z,44
2023-04-29T22:00:33.759Z,44
2023-04-29T22:15:32.271Z,44
2023-04-29T22:30:32.666Z,44
2023-04-29T22:45:32.899Z,44
2023-04-29T23:00:32.526Z,43
2023-04-29T23:15:32.054Z,43
2023-04-29T23:30:32.868Z,43
2023-04-29T23:45:32.703Z,43
